Time;durP1;ratioP1;P1;durP2;ratioP2;P2;SDS_P1;SDS_P2;PMS_P1;PMS_P2;Temp;Humidity;BMP_temperature;BMP_pressure;BME280_temperature;BME280_humidity;BME280_pressure;Samples;Min_cycle;Max_cycle;Signal;HPM_P1;HPM_P2
2022/05/23 00:00:17;;;;;;;11.32;5.57;;;;;;;16.22;100.00;100663.66;5275110;28;20533;-72
2022/05/23 00:02:49;;;;;;;10.73;6.32;;;;;;;16.16;100.00;100656.34;5272143;28;20023;-72
2022/05/23 00:05:19;;;;;;;17.52;6.53;;;;;;;16.11;100.00;100663.41;5273576;28;20452;-72
2022/05/23 00:07:50;;;;;;;11.40;6.38;;;;;;;16.02;100.00;100660.09;5282583;28;20043;-72
2022/05/23 00:10:21;;;;;;;10.02;6.20;;;;;;;15.97;100.00;100662.59;5272313;28;20036;-72
2022/05/23 00:12:52;;;;;;;11.38;6.05;;;;;;;15.88;100.00;100653.00;5275059;28;20031;-71
2022/05/23 00:15:22;;;;;;;17.27;6.85;;;;;;;15.75;100.00;100653.78;5286535;28;20500;-71
2022/05/23 00:17:54;;;;;;;14.10;6.40;;;;;;;15.62;100.00;100653.75;5277143;27;20401;-71
2022/05/23 00:20:26;;;;;;;18.27;6.90;;;;;;;15.48;100.00;100661.81;5283571;28;20102;-71
2022/05/23 00:22:57;;;;;;;17.17;7.50;;;;;;;15.39;100.00;100660.31;5275115;28;20032;-72
2022/05/23 00:25:27;;;;;;;17.67;7.43;;;;;;;15.24;100.00;100657.75;5279645;28;20028;-71
2022/05/23 00:27:58;;;;;;;13.82;7.18;;;;;;;15.15;100.00;100656.25;5279185;28;20385;-71
2022/05/23 00:30:28;;;;;;;14.63;7.55;;;;;;;15.08;100.00;100654.56;5280137;28;20035;-71
2022/05/23 00:35:52;;;;;;;18.08;8.18;;;;;;;14.91;100.00;100663.00;5277107;28;20487;-71
2022/05/23 00:38:23;;;;;;;14.85;7.22;;;;;;;14.82;100.00;100648.00;5273516;28;20024;-71
2022/05/23 00:44:23;;;;;;;10.15;7.63;;;;;;;14.71;100.00;100652.09;5273048;28;20397;-71
2022/05/23 00:46:56;;;;;;;17.83;8.77;;;;;;;14.72;100.00;100652.94;5286796;28;20477;-71
2022/05/23 00:49:32;;;;;;;14.85;7.32;;;;;;;14.73;100.00;100647.31;5273650;28;20384;-71
2022/05/23 00:52:06;;;;;;;13.15;7.90;;;;;;;14.73;100.00;100644.63;5275357;28;20024;-71
2022/05/23 00:54:54;;;;;;;14.15;7.22;;;;;;;14.74;100.00;100632.78;5279349;28;20024;-71
2022/05/23 00:57:31;;;;;;;15.43;7.68;;;;;;;14.77;100.00;100631.56;5279283;28;20038;-71
2022/05/23 01:00:05;;;;;;;13.10;7.53;;;;;;;14.80;100.00;100636.53;5275183;28;20038;-71
2022/05/23 01:02:37;;;;;;;17.92;8.85;;;;;;;14.81;100.00;100630.13;5272894;28;20020;-71
2022/05/23 01:05:09;;;;;;;13.82;7.35;;;;;;;14.81;100.00;100627.44;5276275;28;20067;-71
2022/05/23 01:07:40;;;;;;;15.35;8.30;;;;;;;14.81;100.00;100629.28;5285119;28;20048;-71
2022/05/23 01:10:11;;;;;;;13.30;8.38;;;;;;;14.80;100.00;100631.13;5286868;28;20027;-72
2022/05/23 01:12:42;;;;;;;14.05;7.65;;;;;;;14.75;100.00;100631.72;5280560;28;20023;-71
2022/05/23 01:15:32;;;;;;;13.65;7.38;;;;;;;14.73;100.00;100632.97;5279137;28;20020;-71
2022/05/23 01:18:04;;;;;;;12.30;7.00;;;;;;;14.70;100.00;100634.19;5290583;28;20262;-71
2022/05/23 01:20:35;;;;;;;14.15;6.97;;;;;;;14.70;100.00;100636.91;5276882;28;20031;-71
2022/05/23 01:23:34;;;;;;;12.70;6.57;;;;;;;14.73;100.00;100627.59;5290094;28;20024;-72
2022/05/23 01:26:04;;;;;;;11.30;6.53;;;;;;;14.75;100.00;100623.63;5269345;28;20034;-71
2022/05/23 01:28:38;;;;;;;11.88;6.22;;;;;;;14.77;100.00;100621.59;5282846;28;20019;-71
2022/05/23 01:31:11;;;;;;;18.92;7.40;;;;;;;14.83;100.00;100624.53;5280930;28;20023;-71
2022/05/23 01:33:42;;;;;;;15.98;7.90;;;;;;;14.88;100.00;100619.34;5284478;28;20481;-71
2022/05/23 01:36:14;;;;;;;18.42;7.43;;;;;;;14.93;100.00;100611.50;5282477;28;20073;-71
2022/05/23 01:38:45;;;;;;;14.70;7.25;;;;;;;14.97;100.00;100608.19;5281638;28;20045;-71
2022/05/23 01:41:16;;;;;;;12.13;6.45;;;;;;;15.02;100.00;100604.88;5285130;28;20024;-71
2022/05/23 01:43:46;;;;;;;11.85;5.85;;;;;;;15.05;100.00;100609.88;5289874;28;20377;-71
2022/05/23 01:46:17;;;;;;;13.85;6.95;;;;;;;15.09;100.00;100611.13;5276336;28;20061;-71
2022/05/23 01:48:48;;;;;;;13.80;7.88;;;;;;;15.10;100.00;100603.88;5279141;28;20386;-71
2022/05/23 01:51:19;;;;;;;14.38;8.65;;;;;;;15.11;100.00;100598.28;5287214;28;20023;-72
2022/05/23 01:53:49;;;;;;;19.25;9.43;;;;;;;15.09;100.00;100602.19;5278424;28;20020;-72
2022/05/23 01:56:20;;;;;;;13.57;7.75;;;;;;;15.08;100.00;100609.47;5268961;28;20059;-72
2022/05/23 02:01:40;;;;;;;14.15;9.23;;;;;;;15.09;100.00;100600.34;5268710;28;20028;-71
2022/05/23 02:04:10;;;;;;;17.08;9.27;;;;;;;15.08;100.00;100587.88;5270984;28;20046;-72
2022/05/23 02:06:41;;;;;;;16.30;8.57;;;;;;;15.09;100.00;100580.59;5285868;28;20447;-72
2022/05/23 02:09:12;;;;;;;14.05;8.88;;;;;;;15.09;100.00;100584.13;5284095;27;20416;-72
2022/05/23 02:11:42;;;;;;;17.50;8.70;;;;;;;15.07;100.00;100580.81;5279937;28;20501;-71
2022/05/23 02:14:13;;;;;;;17.30;8.70;;;;;;;15.07;100.00;100572.69;5287486;28;20392;-71
2022/05/23 02:16:43;;;;;;;18.80;8.93;;;;;;;15.05;100.00;100579.31;5276101;27;20107;-70
2022/05/23 02:19:14;;;;;;;25.20;9.10;;;;;;;15.01;100.00;100574.34;5268505;28;20371;-70
2022/05/23 02:21:44;;;;;;;22.63;9.38;;;;;;;15.00;100.00;100575.34;5281093;28;20012;-71
2022/05/23 02:24:15;;;;;;;15.52;8.45;;;;;;;15.00;100.00;100575.34;5268290;28;20025;-70
2022/05/23 02:26:45;;;;;;;18.80;10.25;;;;;;;15.01;100.00;100577.03;5282541;28;20027;-71
2022/05/23 02:29:18;;;;;;;22.48;10.63;;;;;;;15.00;100.00;100563.72;5288457;28;20550;-71
2022/05/23 02:31:48;;;;;;;22.17;11.20;;;;;;;14.99;100.00;100556.66;5271564;28;20524;-70
2022/05/23 02:34:19;;;;;;;15.10;10.85;;;;;;;14.97;100.00;100551.47;5268018;28;20052;-70
2022/05/23 02:36:50;;;;;;;20.65;10.32;;;;;;;14.96;100.00;100546.25;5267825;28;20024;-70
2022/05/23 02:39:21;;;;;;;18.55;9.48;;;;;;;14.93;100.00;100544.78;5281532;28;20049;-70
2022/05/23 02:41:51;;;;;;;17.88;10.90;;;;;;;14.91;100.00;100548.72;5281786;28;20038;-70
2022/05/23 02:44:22;;;;;;;17.98;10.55;;;;;;;14.88;100.00;100530.22;5281035;28;20019;-70
2022/05/23 02:46:53;;;;;;;15.63;10.00;;;;;;;14.86;100.00;100532.28;5276474;28;20106;-71
2022/05/23 02:49:24;;;;;;;13.68;9.95;;;;;;;14.84;100.00;100521.69;5275049;28;20108;-71
2022/05/23 02:51:54;;;;;;;18.58;10.55;;;;;;;14.83;100.00;100513.81;5278939;28;20107;-71
2022/05/23 02:54:25;;;;;;;18.38;10.27;;;;;;;14.81;100.00;100514.00;5270869;28;20026;-71
2022/05/23 02:56:55;;;;;;;17.60;10.05;;;;;;;14.77;100.00;100491.97;5288380;28;20073;-70
2022/05/23 02:59:26;;;;;;;23.40;9.63;;;;;;;14.72;100.00;100485.50;5283803;28;20023;-70
2022/05/23 03:04:46;;;;;;;18.67;10.80;;;;;;;14.57;100.00;100477.56;5288490;28;20495;-70
2022/05/23 03:07:16;;;;;;;18.73;9.98;;;;;;;14.49;100.00;100470.47;5283752;28;20021;-70
2022/05/23 03:09:47;;;;;;;16.25;9.50;;;;;;;14.44;100.00;100462.09;5288570;28;20019;-70
2022/05/23 03:12:17;;;;;;;19.52;10.38;;;;;;;14.41;100.00;100469.78;5271490;28;20027;-70
2022/05/23 03:14:48;;;;;;;16.92;10.10;;;;;;;14.35;100.00;100449.81;5272331;28;20022;-70
2022/05/23 03:17:18;;;;;;;21.27;11.18;;;;;;;14.31;100.00;100448.56;5274549;28;20468;-70
2022/05/23 03:19:49;;;;;;;20.80;11.57;;;;;;;14.27;100.00;100446.47;5287809;28;20447;-69
2022/05/23 03:27:59;;;;;;;22.88;11.80;;;;;;;14.09;100.00;100439.72;5288113;28;20086;-71
2022/05/23 03:30:31;;;;;;;20.10;10.85;;;;;;;14.05;100.00;100434.91;5266508;28;20036;-71
2022/05/23 03:33:02;;;;;;;19.13;11.32;;;;;;;13.99;100.00;100429.28;5280606;28;20031;-71
2022/05/23 03:35:34;;;;;;;21.40;11.73;;;;;;;13.94;100.00;100420.97;5266747;28;20401;-72
2022/05/23 03:38:05;;;;;;;19.83;11.00;;;;;;;13.89;100.00;100409.94;5266616;28;20393;-71
2022/05/23 03:40:38;;;;;;;23.70;11.05;;;;;;;13.84;100.00;100401.59;5277421;28;20029;-71
2022/05/23 03:43:09;;;;;;;20.60;11.20;;;;;;;13.79;100.00;100404.06;5274268;28;20512;-72
2022/05/23 03:45:40;;;;;;;20.77;11.50;;;;;;;13.76;100.00;100415.25;5275727;28;20060;-72
2022/05/23 03:48:10;;;;;;;16.67;10.32;;;;;;;13.72;100.00;100420.22;5286098;28;20065;-70
2022/05/23 03:50:42;;;;;;;18.67;11.57;;;;;;;13.75;100.00;100418.97;5287605;28;20413;-70
2022/05/23 03:53:13;;;;;;;19.33;11.48;;;;;;;13.77;100.00;100426.88;5273503;28;20019;-71
2022/05/23 03:55:43;;;;;;;23.00;11.55;;;;;;;13.73;100.00;100415.66;5273727;28;20523;-69
2022/05/23 03:58:13;;;;;;;21.50;12.27;;;;;;;13.72;100.00;100417.50;5287503;28;20502;-69
2022/05/23 04:00:49;;;;;;;19.48;11.80;;;;;;;13.71;100.00;100394.28;5271568;28;20054;-70
2022/05/23 04:03:20;;;;;;;26.48;11.73;;;;;;;13.71;100.00;100396.97;5266489;28;20489;-70
2022/05/23 04:05:50;;;;;;;25.17;11.43;;;;;;;13.72;100.00;100397.81;5279958;28;20118;-70
2022/05/23 04:08:21;;;;;;;17.35;9.93;;;;;;;13.74;100.00;100388.47;5275668;28;20107;-70
2022/05/23 04:10:51;;;;;;;27.45;10.68;;;;;;;13.84;100.00;100388.13;5271185;28;20043;-71
2022/05/23 04:13:22;;;;;;;22.25;11.02;;;;;;;13.88;100.00;100385.88;5274884;28;20012;-71
2022/05/23 04:15:52;;;;;;;24.02;11.57;;;;;;;13.87;100.00;100387.75;5278825;28;20028;-71
2022/05/23 04:18:23;;;;;;;24.33;11.65;;;;;;;13.87;100.00;100384.22;5279945;28;20023;-71
2022/05/23 04:20:57;;;;;;;24.27;10.90;;;;;;;13.86;100.00;100383.38;5279350;28;20028;-71
2022/05/23 04:23:28;;;;;;;19.95;11.98;;;;;;;13.85;100.00;100376.31;5268273;28;20513;-71
2022/05/23 04:26:02;;;;;;;27.42;11.82;;;;;;;13.89;100.00;100374.88;5278065;28;20031;-71
2022/05/23 04:28:33;;;;;;;18.63;10.43;;;;;;;13.97;100.00;100379.28;5282710;28;20031;-70
2022/05/23 04:31:03;;;;;;;23.92;12.40;;;;;;;14.06;100.00;100379.97;5275925;28;20444;-71
2022/05/23 04:36:23;;;;;;;23.77;12.40;;;;;;;14.12;100.00;100358.41;5272099;28;20412;-70
2022/05/23 04:38:53;;;;;;;21.08;12.02;;;;;;;14.17;100.00;100360.50;5265674;28;20031;-70
2022/05/23 04:41:24;;;;;;;20.85;12.13;;;;;;;14.21;100.00;100357.19;5266001;28;20512;-70
2022/05/23 04:43:54;;;;;;;23.15;12.60;;;;;;;14.18;100.00;100357.59;5276912;28;20465;-70
2022/05/23 04:46:26;;;;;;;18.02;12.05;;;;;;;14.18;100.00;100348.66;5273167;28;20031;-70
2022/05/23 04:51:46;;;;;;;19.60;10.57;;;;;;;14.28;100.00;100346.41;5270095;28;20028;-71
2022/05/23 04:54:16;;;;;;;20.30;10.43;;;;;;;14.37;100.00;100339.81;5283612;28;20018;-72
2022/05/23 04:56:47;;;;;;;15.60;9.60;;;;;;;14.45;100.00;100339.59;5279990;28;20016;-71
2022/05/23 04:59:17;;;;;;;27.08;12.43;;;;;;;14.56;100.00;100337.38;5277239;28;20047;-71
2022/05/23 05:01:47;;;;;;;23.00;12.43;;;;;;;14.67;100.00;100339.50;5290779;28;20020;-71
2022/05/23 05:04:18;;;;;;;24.40;12.80;;;;;;;14.80;100.00;100338.66;5277033;28;20502;-71
2022/05/23 05:06:48;;;;;;;25.55;12.32;;;;;;;14.88;100.00;100327.69;5287157;28;20437;-70
2022/05/23 05:09:19;;;;;;;15.80;10.70;;;;;;;14.95;100.00;100328.50;5277326;28;20217;-70
2022/05/23 05:11:49;;;;;;;23.35;12.38;;;;;;;14.98;100.00;100314.59;5277900;28;20030;-70
2022/05/23 05:14:20;;;;;;;24.80;11.68;;;;;;;15.08;100.00;100308.78;5276070;28;20473;-72
2022/05/23 05:16:50;;;;;;;20.27;11.13;;;;;;;15.19;100.00;100303.56;5277100;28;20039;-72
2022/05/23 05:19:21;;;;;;;21.10;12.38;;;;;;;15.34;100.00;100305.22;5291008;27;20605;-72
2022/05/23 05:21:51;;;;;;;20.83;12.52;;;;;;;15.43;100.00;100295.84;5274871;28;20027;-72
2022/05/23 05:24:22;;;;;;;24.75;11.63;;;;;;;15.51;100.00;100301.00;5269334;28;20024;-71
2022/05/23 05:26:52;;;;;;;23.60;11.73;;;;;;;15.64;100.00;100300.19;5285594;28;20070;-71
2022/05/23 05:29:23;;;;;;;17.30;11.98;;;;;;;15.77;100.00;100295.56;5289144;28;20027;-71
2022/05/23 05:32:02;;;;;;;21.13;10.98;;;;;;;15.95;100.00;100299.44;5286153;28;20043;-72
2022/05/23 05:34:39;;;;;;;18.98;10.88;;;;;;;16.11;100.00;100290.81;5269133;28;20016;-72
2022/05/23 05:37:14;;;;;;;16.35;10.57;;;;;;;16.28;100.00;100280.34;5268938;28;20530;-72
2022/05/23 05:39:47;;;;;;;18.00;10.90;;;;;;;16.43;100.00;100277.34;5272483;28;20019;-71
2022/05/23 05:42:36;;;;;;;15.57;10.82;;;;;;;16.57;100.00;100278.91;5290199;28;20031;-71
2022/05/23 05:45:14;;;;;;;21.80;10.50;;;;;;;16.64;100.00;100273.44;5282517;28;20066;-71
2022/05/23 05:47:47;;;;;;;18.13;10.90;;;;;;;16.69;100.00;100266.31;5282077;28;20107;-71
2022/05/23 05:50:23;;;;;;;20.75;10.93;;;;;;;16.74;100.00;100261.09;5279191;28;20106;-72
2022/05/23 05:52:58;;;;;;;19.02;11.13;;;;;;;16.79;100.00;100260.44;5271144;28;20055;-71
2022/05/23 05:55:29;;;;;;;17.17;10.45;;;;;;;16.81;100.00;100264.56;5282460;28;20093;-71
2022/05/23 05:57:59;;;;;;;17.90;10.63;;;;;;;16.83;100.00;100258.94;5275572;28;20043;-71
2022/05/23 06:00:30;;;;;;;19.67;10.48;;;;;;;16.83;100.00;100258.94;5276158;28;20116;-71
2022/05/23 06:03:00;;;;;;;18.05;9.85;;;;;;;16.84;100.00;100260.59;5289832;28;20473;-72
2022/05/23 06:11:23;;;;;;;16.17;10.10;;;;;;;16.84;100.00;100266.00;5275598;28;20504;-70
2022/05/23 06:11:23;;;;;;;20.00;10.63;;;;;;;16.79;100.00;100263.13;5268428;28;20027;-70
2022/05/23 06:13:57;;;;;;;18.55;10.88;;;;;;;16.75;100.00;100265.44;5282433;28;20033;-70
2022/05/23 06:16:31;;;;;;;14.27;9.57;;;;;;;16.74;100.00;100271.09;5288666;28;20027;-70
2022/05/23 06:19:03;;;;;;;18.55;10.52;;;;;;;16.77;100.00;100278.78;5275425;28;20031;-70
2022/05/23 06:21:34;;;;;;;18.30;11.63;;;;;;;16.77;100.00;100295.88;5289056;28;20020;-70
2022/05/23 06:24:04;;;;;;;20.75;10.48;;;;;;;16.82;100.00;100298.75;5281548;28;20385;-70
2022/05/23 06:26:35;;;;;;;18.73;11.02;;;;;;;16.80;100.00;100292.69;5281863;28;20034;-70
2022/05/23 06:29:06;;;;;;;20.58;10.25;;;;;;;16.76;100.00;100302.31;5268246;28;20019;-70
2022/05/23 06:31:36;;;;;;;19.75;11.95;;;;;;;16.74;100.00;100304.44;5284642;28;20035;-70
2022/05/23 06:34:06;;;;;;;16.85;10.52;;;;;;;16.73;100.00;100300.06;5289060;27;20473;-70
2022/05/23 06:36:37;;;;;;;16.98;10.82;;;;;;;16.72;100.00;100293.00;5275181;28;20055;-71
2022/05/23 06:39:07;;;;;;;18.23;11.50;;;;;;;16.77;100.00;100287.75;5277131;28;20020;-70
2022/05/23 06:41:38;;;;;;;16.30;10.77;;;;;;;16.83;100.00;100280.63;5281589;28;20146;-70
2022/05/23 06:44:08;;;;;;;19.55;11.77;;;;;;;16.89;100.00;100281.59;5280411;28;20110;-70
2022/05/23 06:46:39;;;;;;;27.50;12.02;;;;;;;16.97;100.00;100282.16;5282448;28;20172;-71
2022/05/23 06:49:10;;;;;;;18.48;11.57;;;;;;;17.09;100.00;100277.66;5276986;28;20034;-71
2022/05/23 06:51:41;;;;;;;18.90;10.80;;;;;;;17.21;100.00;100276.91;5273557;28;20024;-70
2022/05/23 06:54:11;;;;;;;16.75;9.77;;;;;;;17.34;100.00;100266.78;5279294;28;20536;-70
2022/05/23 06:56:42;;;;;;;18.55;11.43;;;;;;;17.51;100.00;100263.47;5286441;28;20024;-70
2022/05/23 06:59:13;;;;;;;21.30;10.60;;;;;;;17.63;100.00;100272.53;5285938;27;20496;-71
2022/05/23 07:01:45;;;;;;;19.52;9.85;;;;;;;17.73;100.00;100267.44;5285441;28;20035;-71
2022/05/23 07:04:16;;;;;;;19.65;10.00;;;;;;;17.81;100.00;100258.97;5285072;28;20035;-71
2022/05/23 07:12:24;;;;;;;16.30;9.95;;;;;;;18.25;100.00;100246.06;5285357;28;20488;-71
2022/05/23 07:14:56;;;;;;;15.52;8.65;;;;;;;18.28;100.00;100239.34;5280521;28;20020;-71
2022/05/23 07:17:27;;;;;;;18.73;9.75;;;;;;;18.24;100.00;100236.25;5277680;28;20053;-71
2022/05/23 07:19:58;;;;;;;20.15;10.43;;;;;;;18.29;100.00;100241.81;5277811;28;20024;-71
2022/05/23 07:22:28;;;;;;;16.33;9.25;;;;;;;18.41;100.00;100230.16;5271785;28;20219;-70
2022/05/23 07:24:59;;;;;;;16.20;8.77;;;;;;;18.53;100.00;100234.56;5270107;28;20028;-71
2022/05/23 07:27:30;;;;;;;13.45;8.82;;;;;;;18.53;100.00;100240.00;5272298;28;20030;-71
2022/05/23 07:30:01;;;;;;;19.02;8.35;;;;;;;18.47;100.00;100231.94;5271341;28;20055;-71
2022/05/23 07:32:33;;;;;;;16.60;8.32;;;;;;;18.43;100.00;100226.16;5285414;28;20472;-71
2022/05/23 07:35:04;;;;;;;12.10;7.38;;;;;;;18.40;100.00;100223.91;5285199;28;20042;-71
2022/05/23 07:37:35;;;;;;;16.33;8.77;;;;;;;18.40;100.00;100218.47;5272988;28;20081;-71
2022/05/23 07:40:06;;;;;;;15.50;8.15;;;;;;;18.44;100.00;100222.38;5283018;28;20031;-71
2022/05/23 07:42:36;;;;;;;12.73;8.02;;;;;;;18.49;100.00;100221.69;5285079;28;20023;-71
2022/05/23 07:45:08;;;;;;;16.45;8.55;;;;;;;18.58;100.00;100207.53;5284820;28;20464;-71
2022/05/23 07:47:38;;;;;;;13.35;8.20;;;;;;;18.66;100.00;100210.94;5271142;28;20034;-71
2022/05/23 07:50:10;;;;;;;15.98;7.68;;;;;;;18.69;100.00;100195.06;5284882;28;20015;-71
2022/05/23 08:00:30;;;;;;;13.75;8.27;;;;;;;18.73;100.00;100187.28;5270522;28;20489;-71
2022/05/23 08:01:10;;;;;;;12.23;6.82;;;;;;;19.18;100.00;100171.16;5276661;28;20135;-71
2022/05/23 08:03:41;;;;;;;11.75;6.53;;;;;;;19.43;100.00;100157.28;5263972;28;20570;-71
2022/05/23 08:06:12;;;;;;;10.77;6.50;;;;;;;19.68;100.00;100162.41;5265867;28;20020;-71
2022/05/23 08:08:43;;;;;;;15.27;7.10;;;;;;;20.03;100.00;100162.25;5284746;28;20023;-71
2022/05/23 08:11:13;;;;;;;14.68;6.07;;;;;;;20.35;100.00;100165.25;5284013;27;20023;-71
2022/05/23 08:13:48;;;;;;;12.75;6.32;;;;;;;20.54;100.00;100171.31;5284734;28;20346;-71
2022/05/23 08:16:19;;;;;;;13.75;5.05;;;;;;;20.68;100.00;100174.50;5284111;28;20043;-71
2022/05/23 08:18:49;;;;;;;12.23;5.35;;;;;;;21.07;100.00;100175.34;5271213;27;20024;-71
2022/05/23 08:21:19;;;;;;;11.38;5.63;;;;;;;21.60;100.00;100173.06;5272322;28;20028;-71
2022/05/23 08:23:50;;;;;;;13.07;4.95;;;;;;;21.81;100.00;100168.66;5267892;28;20027;-71
2022/05/23 08:26:21;;;;;;;7.90;4.57;;;;;;;21.84;100.00;100158.06;5284346;28;20392;-71
2022/05/23 08:28:52;;;;;;;10.48;4.57;;;;;;;21.92;100.00;100145.84;5284805;28;20028;-71
2022/05/23 08:31:22;;;;;;;5.95;4.07;;;;;;;21.96;100.00;100141.50;5283807;28;20016;-71
2022/05/23 08:33:53;;;;;;;6.05;4.20;;;;;;;21.97;100.00;100143.16;5284640;28;20496;-71
2022/05/23 08:36:23;;;;;;;5.00;3.35;;;;;;;21.90;100.00;100129.72;5283500;28;20510;-72
2022/05/23 08:38:54;;;;;;;12.43;4.35;;;;;;;22.09;100.00;100129.31;5274723;28;20016;-71
2022/05/23 08:41:44;;;;;;;5.82;3.80;;;;;;;22.67;100.00;100128.44;5266096;28;20046;-71
2022/05/23 08:44:50;;;;;;;8.93;3.85;;;;;;;23.20;100.00;100131.25;5284098;28;20434;-71
2022/05/23 08:47:27;;;;;;;8.75;3.58;;;;;;;23.47;100.00;100139.28;5272021;28;20524;-71
2022/05/23 08:50:35;;;;;;;9.25;3.72;;;;;;;23.63;100.00;100141.00;5263915;28;20034;-71
2022/05/23 08:53:13;;;;;;;8.27;3.25;;;;;;;23.87;100.00;100129.53;5264722;28;20020;-71
2022/05/23 08:55:48;;;;;;;7.57;3.30;;;;;;;24.61;100.00;100120.00;5263075;28;20024;-72
2022/05/23 08:58:27;;;;;;;5.35;2.80;;;;;;;24.89;100.00;100119.38;5263127;28;20024;-71
2022/05/23 09:01:03;;;;;;;34.17;6.35;;;;;;;25.20;100.00;100111.91;5263478;28;20032;-72
2022/05/23 09:03:40;;;;;;;15.10;3.53;;;;;;;25.70;100.00;100112.72;5262413;28;20388;-72
2022/05/23 09:06:17;;;;;;;7.80;3.00;;;;;;;25.98;100.00;100093.88;5270060;28;20195;-72
2022/05/23 09:09:06;;;;;;;7.03;2.85;;;;;;;26.45;100.00;100101.47;5269466;28;20025;-72
2022/05/23 09:11:41;;;;;;;5.18;2.20;;;;;;;26.69;100.00;100082.25;5263661;28;20020;-72
2022/05/23 09:14:14;;;;;;;6.55;2.95;;;;;;;26.96;100.00;100073.41;5264566;28;20031;-72
2022/05/23 09:17:00;;;;;;;8.35;2.97;;;;;;;26.75;97.82;100061.00;5283829;28;20115;-72
2022/05/23 09:20:08;;;;;;;6.60;2.55;;;;;;;26.33;100.00;100063.31;5262604;28;20122;-72
2022/05/23 09:22:45;;;;;;;5.72;2.38;;;;;;;26.30;100.00;100063.06;5278362;28;20459;-72
2022/05/23 09:25:19;;;;;;;3.53;2.20;;;;;;;26.06;100.00;100052.88;5266900;28;20024;-72
2022/05/23 09:28:04;;;;;;;5.43;2.30;;;;;;;26.01;100.00;100046.59;5263545;28;20024;-72
2022/05/23 09:30:37;;;;;;;5.75;2.17;;;;;;;26.58;100.00;100043.03;5262779;28;20024;-72
2022/05/23 09:33:12;;;;;;;4.40;2.63;;;;;;;27.01;94.40;100037.56;5262957;28;20027;-72
2022/05/23 09:35:42;;;;;;;4.38;2.45;;;;;;;27.04;90.06;100034.22;5266375;28;20063;-72
2022/05/23 09:38:32;;;;;;;28.92;4.95;;;;;;;27.10;97.24;100032.25;5267064;28;20047;-72
2022/05/23 09:41:02;;;;;;;7.28;3.00;;;;;;;27.60;89.99;100016.91;5265258;28;20024;-72
2022/05/23 09:49:24;;;;;;;5.97;2.20;;;;;;;27.37;80.75;100009.56;5279332;28;20350;-72
2022/05/23 09:52:31;;;;;;;6.13;2.50;;;;;;;27.02;80.52;100008.13;5275729;28;20027;-72
2022/05/23 09:55:04;;;;;;;6.88;2.28;;;;;;;26.60;83.97;100006.97;5279058;28;20028;-72
2022/05/23 09:57:39;;;;;;;6.63;2.40;;;;;;;25.91;86.58;99998.03;5279581;28;20039;-72
2022/05/23 10:00:32;;;;;;;7.45;2.70;;;;;;;25.50;93.37;99992.84;5276886;28;20091;-72
2022/05/23 10:03:05;;;;;;;6.10;2.65;;;;;;;25.01;98.57;99990.09;5287282;28;20028;-72
2022/05/23 10:05:41;;;;;;;3.70;2.17;;;;;;;24.67;100.00;100000.97;5284110;28;20497;-72
2022/05/23 10:08:29;;;;;;;3.30;2.80;;;;;;;24.35;100.00;99993.06;5283145;27;20393;-72
2022/05/23 10:11:03;;;;;;;7.05;2.30;;;;;;;24.22;100.00;99986.25;5286258;28;20027;-72
2022/05/23 10:13:37;;;;;;;3.55;2.30;;;;;;;23.72;100.00;99991.50;5287015;28;20103;-72
2022/05/23 10:16:08;;;;;;;7.28;2.42;;;;;;;23.52;100.00;99999.69;5277427;28;20481;-72
2022/05/23 10:19:01;;;;;;;4.80;2.20;;;;;;;23.36;100.00;99985.16;5282173;28;20027;-72
2022/05/23 10:21:52;;;;;;;6.78;2.60;;;;;;;23.31;100.00;99982.41;5278210;28;20359;-72
2022/05/23 10:24:22;;;;;;;8.30;2.75;;;;;;;23.47;100.00;99975.03;5286570;28;20476;-72
2022/05/23 10:27:00;;;;;;;3.47;2.53;;;;;;;23.62;100.00;99964.09;5286408;28;20058;-72
2022/05/23 10:29:58;;;;;;;6.68;2.58;;;;;;;23.58;100.00;99959.44;5274095;28;20027;-72
2022/05/23 10:32:35;;;;;;;5.10;2.40;;;;;;;23.44;100.00;99962.69;5275069;28;20163;-72
2022/05/23 10:35:16;;;;;;;3.08;1.83;;;;;;;23.29;100.00;99957.22;5285753;28;20382;-72
2022/05/23 10:37:47;;;;;;;5.88;2.53;;;;;;;23.23;100.00;99939.97;5272800;28;20028;-71
2022/05/23 10:43:28;;;;;;;4.15;2.25;;;;;;;23.33;100.00;99928.22;5280794;28;20039;-71
2022/05/23 10:46:00;;;;;;;5.13;2.53;;;;;;;23.38;100.00;99914.53;5277240;28;20039;-72
2022/05/23 10:48:39;;;;;;;7.50;2.25;;;;;;;23.17;100.00;99904.69;5274880;28;20051;-72
2022/05/23 10:51:31;;;;;;;3.95;2.20;;;;;;;23.31;100.00;99900.31;5285781;28;20023;-71
2022/05/23 10:54:30;;;;;;;6.35;2.28;;;;;;;23.52;100.00;99892.91;5272102;28;20027;-71
2022/05/23 10:57:29;;;;;;;5.55;2.63;;;;;;;23.59;100.00;99903.59;5286528;28;20031;-72
2022/05/23 11:00:07;;;;;;;7.28;3.55;;;;;;;23.62;100.00;99889.34;5285854;28;20046;-72
2022/05/23 11:03:01;;;;;;;12.75;3.13;;;;;;;23.55;100.00;99895.13;5280510;28;20016;-71
2022/05/23 11:05:56;;;;;;;5.53;2.63;;;;;;;23.52;100.00;99885.53;5280503;28;20110;-72
2022/05/23 11:09:02;;;;;;;5.85;2.20;;;;;;;23.46;100.00;99885.81;5277857;28;20392;-71
2022/05/23 11:11:52;;;;;;;5.03;2.05;;;;;;;23.64;100.00;99881.72;5273172;28;20028;-72
2022/05/23 11:15:05;;;;;;;7.78;2.20;;;;;;;23.99;100.00;99872.59;5266675;28;20310;-72
2022/05/23 11:17:58;;;;;;;6.43;2.20;;;;;;;24.27;100.00;99866.47;5272907;28;20413;-72
2022/05/23 11:20:33;;;;;;;8.77;2.72;;;;;;;24.24;100.00;99857.97;5271347;28;20024;-71
2022/05/23 11:23:27;;;;;;;4.43;1.63;;;;;;;24.28;100.00;99848.91;5271550;28;20027;-72
2022/05/23 11:26:30;;;;;;;7.07;2.50;;;;;;;24.17;100.00;99849.25;5264677;28;20073;-72
2022/05/23 11:35:06;;;;;;;9.35;2.15;;;;;;;24.10;100.00;99852.31;5264502;28;20461;-71
2022/05/23 11:40:26;;;;;;;6.68;2.83;;;;;;;23.50;100.00;99857.63;5266496;28;20183;-71
2022/05/23 11:43:01;;;;;;;6.13;2.35;;;;;;;23.16;100.00;99849.16;5281655;28;20032;-71
2022/05/23 11:48:37;;;;;;;6.75;2.60;;;;;;;22.62;100.00;99848.78;5286347;28;20020;-71
2022/05/23 11:51:27;;;;;;;12.52;3.25;;;;;;;22.48;100.00;99849.28;5286098;28;20031;-72
2022/05/23 11:54:34;;;;;;;6.47;2.60;;;;;;;22.09;100.00;99848.00;5273190;28;20016;-71
2022/05/23 11:57:04;;;;;;;8.82;3.05;;;;;;;21.90;100.00;99844.94;5265138;28;20377;-71
2022/05/23 11:59:35;;;;;;;7.47;2.63;;;;;;;21.63;100.00;99847.75;5271697;28;20028;-72
2022/05/23 12:02:06;;;;;;;4.45;2.72;;;;;;;21.58;100.00;99842.25;5285889;28;20411;-71
2022/05/23 12:04:55;;;;;;;6.45;3.00;;;;;;;21.33;100.00;99838.28;5285433;28;20069;-71
2022/05/23 12:07:58;;;;;;;5.90;2.60;;;;;;;21.21;100.00;99832.16;5275999;28;20106;-71
2022/05/23 12:10:29;;;;;;;9.20;3.67;;;;;;;21.14;100.00;99835.13;5281210;28;20503;-71
2022/05/23 12:13:11;;;;;;;8.65;3.20;;;;;;;21.19;100.00;99835.16;5286354;28;20039;-71
2022/05/23 12:15:41;;;;;;;7.35;3.92;;;;;;;21.06;100.00;99849.22;5279715;28;20473;-71
2022/05/23 12:18:12;;;;;;;16.02;3.70;;;;;;;20.87;100.00;99850.66;5278291;28;20053;-73
2022/05/23 12:20:45;;;;;;;12.00;3.63;;;;;;;20.46;100.00;99843.94;5285675;28;20035;-73
2022/05/23 12:23:35;;;;;;;6.75;3.60;;;;;;;20.11;100.00;99840.53;5285598;28;20106;-73
2022/05/23 12:26:26;;;;;;;12.43;3.85;;;;;;;19.98;100.00;99845.53;5285742;28;20038;-73
2022/05/23 12:28:58;;;;;;;15.55;5.05;;;;;;;19.85;100.00;99842.13;5264968;28;20055;-73
2022/05/23 12:31:36;;;;;;;12.10;4.28;;;;;;;19.72;100.00;99847.91;5266891;28;20088;-73
2022/05/23 12:34:26;;;;;;;15.77;4.10;;;;;;;19.62;100.00;99840.44;5285532;28;20542;-72
2022/05/23 12:36:57;;;;;;;13.27;4.93;;;;;;;19.68;100.00;99816.88;5285518;28;20026;-73
2022/05/23 12:39:52;;;;;;;9.63;4.30;;;;;;;19.82;100.00;99820.03;5285186;28;20415;-72
2022/05/23 12:43:01;;;;;;;15.30;5.28;;;;;;;19.83;100.00;99827.94;5285069;28;20142;-73